Terminal Aerodrome Forecast
Issued by NWS

Home | Current Version | Previous Version | Graphics & Text | Print | Product List | Glossary On
Versions: 1 2 3 4 5 6 7 8 9 10 11 12
000
FTUS43 KMPX 181732
TAFAXN
TAF
KAXN 181732Z 1818/1918 32017G26KT P6SM SCT035
     FM182000 32018G27KT P6SM SCT020
     FM190100 30011KT P6SM SKC
     FM191000 26006KT P6SM SCT250
     FM191400 23007KT P6SM BKN200=

USA.gov is the U.S. government's official web portal to all federal, state and local government web resources and services.